Time;durP1;ratioP1;P1;durP2;ratioP2;P2;SDS_P1;SDS_P2;PMS_P1;PMS_P2;Temp;Humidity;BMP_temperature;BMP_pressure;BME280_temperature;BME280_humidity;BME280_pressure;Samples;Min_cycle;Max_cycle;Signal;HPM_P1;HPM_P2
2024/02/22 00:01:05;;;;;;;1.88;1.77;;;10.60;99.90;;;;;;5047034;28;20029;-67
2024/02/22 00:03:31;;;;;;;2.33;1.40;;;10.60;99.90;;;;;;5047901;28;20396;-67
2024/02/22 00:05:57;;;;;;;1.20;1.10;;;10.70;99.90;;;;;;5048516;28;20021;-67
2024/02/22 00:08:22;;;;;;;1.70;1.60;;;10.70;99.90;;;;;;5049290;28;20525;-68
2024/02/22 00:10:48;;;;;;;1.10;1.00;;;10.70;99.90;;;;;;5048839;28;20509;-67
2024/02/22 00:13:14;;;;;;;1.23;1.13;;;10.70;99.90;;;;;;5043736;28;20079;-67
2024/02/22 00:15:39;;;;;;;1.25;1.15;;;10.80;99.90;;;;;;5046196;28;20060;-65
2024/02/22 00:18:05;;;;;;;1.30;1.20;;;10.80;99.90;;;;;;5046174;28;20128;-66
2024/02/22 00:20:31;;;;;;;1.55;1.45;;;10.80;99.90;;;;;;5047613;28;20052;-66
2024/02/22 00:22:57;;;;;;;1.65;1.55;;;10.80;99.90;;;;;;5041941;28;20082;-67
2024/02/22 00:25:24;;;;;;;1.70;1.60;;;10.80;99.90;;;;;;5045305;28;20024;-67
2024/02/22 00:27:50;;;;;;;1.77;1.27;;;10.80;99.90;;;;;;5046309;28;20120;-66
2024/02/22 00:30:15;;;;;;;1.45;1.35;;;10.80;99.90;;;;;;5047816;28;20108;-66
2024/02/22 00:32:41;;;;;;;1.75;1.65;;;10.90;99.90;;;;;;5046445;28;20458;-65
2024/02/22 00:35:07;;;;;;;2.05;1.67;;;10.90;99.90;;;;;;5045716;28;20024;-66
2024/02/22 00:37:35;;;;;;;1.67;1.58;;;10.90;99.90;;;;;;5044833;28;20031;-66
2024/02/22 00:40:02;;;;;;;1.90;1.73;;;10.90;99.90;;;;;;5044840;28;20017;-66
2024/02/22 00:42:28;;;;;;;2.80;1.90;;;10.90;99.90;;;;;;5044606;28;20028;-67
2024/02/22 00:44:53;;;;;;;1.40;1.30;;;10.90;99.90;;;;;;5045174;28;20037;-67
2024/02/22 00:47:19;;;;;;;1.08;0.98;;;10.90;99.90;;;;;;5041171;28;20028;-66
2024/02/22 00:49:45;;;;;;;2.50;2.10;;;10.90;99.90;;;;;;5044214;28;20108;-67
2024/02/22 00:52:10;;;;;;;2.75;2.05;;;10.90;99.90;;;;;;5047149;28;20052;-67
2024/02/22 00:54:36;;;;;;;1.63;1.52;;;10.90;99.90;;;;;;5044799;28;20033;-68
2024/02/22 00:57:01;;;;;;;1.80;1.70;;;10.90;99.90;;;;;;5043018;28;20033;-67
2024/02/22 00:59:33;;;;;;;1.40;1.30;;;11.00;99.90;;;;;;5046564;28;20423;-67
2024/02/22 01:01:59;;;;;;;1.55;1.45;;;11.00;99.90;;;;;;5047810;28;20104;-67
2024/02/22 01:04:25;;;;;;;1.60;1.50;;;11.00;99.90;;;;;;5046583;28;20482;-67
2024/02/22 01:06:52;;;;;;;1.40;1.30;;;11.00;99.90;;;;;;5044203;28;20029;-67
2024/02/22 01:09:18;;;;;;;2.00;1.80;;;11.00;99.90;;;;;;5040859;28;20013;-67
2024/02/22 01:11:43;;;;;;;1.50;1.40;;;11.00;99.90;;;;;;5043936;28;20032;-66
2024/02/22 01:14:09;;;;;;;1.20;1.10;;;11.10;99.90;;;;;;5045222;28;20021;-66
2024/02/22 01:16:35;;;;;;;1.25;1.15;;;11.10;99.90;;;;;;5043976;28;20029;-66
2024/02/22 01:19:00;;;;;;;1.73;1.55;;;11.10;99.90;;;;;;5043574;28;20017;-66
2024/02/22 01:21:26;;;;;;;1.55;1.45;;;11.10;99.90;;;;;;5045790;28;20391;-66
2024/02/22 01:23:52;;;;;;;1.30;1.20;;;11.10;99.90;;;;;;5047323;28;20049;-66
2024/02/22 01:26:17;;;;;;;1.15;1.10;;;11.10;99.90;;;;;;5048430;28;20035;-66
2024/02/22 01:28:43;;;;;;;1.30;1.20;;;11.10;99.90;;;;;;5044650;28;20048;-66
2024/02/22 01:31:09;;;;;;;1.50;1.40;;;11.10;99.90;;;;;;5046580;28;20558;-67
2024/02/22 01:33:36;;;;;;;1.30;1.20;;;11.10;99.90;;;;;;5049458;28;20020;-66
2024/02/22 01:36:02;;;;;;;1.25;1.15;;;11.20;99.90;;;;;;5051830;28;20033;-67
2024/02/22 01:38:27;;;;;;;1.35;1.25;;;11.20;99.90;;;;;;5051630;28;20021;-66
2024/02/22 01:40:53;;;;;;;1.40;1.30;;;11.20;99.90;;;;;;5046610;28;20480;-66
2024/02/22 01:43:18;;;;;;;1.70;1.60;;;11.20;99.90;;;;;;5050007;28;20036;-66
2024/02/22 01:45:44;;;;;;;1.65;1.55;;;11.20;99.90;;;;;;5051440;28;20029;-66
2024/02/22 01:48:10;;;;;;;1.30;1.20;;;11.20;99.90;;;;;;5043662;28;20033;-67
2024/02/22 01:50:37;;;;;;;1.60;1.50;;;11.20;99.90;;;;;;5046294;28;20506;-68
2024/02/22 01:53:04;;;;;;;2.30;1.98;;;11.20;99.90;;;;;;5048667;28;20495;-66
2024/02/22 01:55:30;;;;;;;1.60;1.50;;;11.20;99.90;;;;;;5050608;28;20120;-66
2024/02/22 01:57:56;;;;;;;1.40;1.30;;;11.20;99.90;;;;;;5048098;28;20132;-65
2024/02/22 02:00:23;;;;;;;0.95;0.95;;;11.20;99.90;;;;;;5051989;28;20075;-65
2024/02/22 02:02:49;;;;;;;1.70;1.40;;;11.20;99.90;;;;;;5050996;28;20017;-66
2024/02/22 02:05:16;;;;;;;2.05;1.85;;;11.20;99.90;;;;;;5049105;28;20026;-65
2024/02/22 02:07:41;;;;;;;1.80;1.70;;;11.30;99.90;;;;;;5050613;28;20044;-65
2024/02/22 02:10:09;;;;;;;2.10;1.90;;;11.30;99.90;;;;;;5045564;28;20046;-65
2024/02/22 02:12:34;;;;;;;1.67;1.58;;;11.30;99.90;;;;;;5051123;28;20029;-66
2024/02/22 02:15:00;;;;;;;1.25;1.15;;;11.30;99.90;;;;;;5047433;28;20021;-65
2024/02/22 02:17:25;;;;;;;1.90;1.70;;;11.30;99.90;;;;;;5051036;28;20033;-66
2024/02/22 02:19:53;;;;;;;1.55;1.45;;;11.30;99.90;;;;;;5045783;28;20032;-65
2024/02/22 02:22:43;;;;;;;1.50;1.40;;;11.30;99.90;;;;;;5045908;28;20567;-64
2024/02/22 02:25:09;;;;;;;1.35;1.25;;;11.30;99.90;;;;;;5046869;28;20392;-65
2024/02/22 02:27:37;;;;;;;1.40;1.30;;;11.30;99.90;;;;;;5051145;28;20021;-65
2024/02/22 02:30:04;;;;;;;1.30;1.20;;;11.40;99.90;;;;;;5051234;28;20204;-67
2024/02/22 02:32:29;;;;;;;1.70;1.60;;;11.40;99.90;;;;;;5050638;28;20387;-65
2024/02/22 02:34:55;;;;;;;1.40;1.30;;;11.40;99.90;;;;;;5048323;28;20021;-66
2024/02/22 02:37:20;;;;;;;1.38;1.27;;;11.40;99.90;;;;;;5052649;28;20472;-67
2024/02/22 02:39:46;;;;;;;1.50;1.40;;;11.40;99.90;;;;;;5051108;28;20570;-66
2024/02/22 02:42:12;;;;;;;1.70;1.60;;;11.40;99.90;;;;;;5052377;28;20029;-67
2024/02/22 02:44:38;;;;;;;1.90;1.70;;;11.50;99.90;;;;;;5041017;28;20028;-67
2024/02/22 02:47:06;;;;;;;1.88;1.65;;;11.50;99.90;;;;;;5048141;28;20029;-67
2024/02/22 02:49:32;;;;;;;2.30;1.90;;;11.40;99.90;;;;;;5049838;28;20086;-67
2024/02/22 02:51:57;;;;;;;2.30;1.92;;;11.50;99.90;;;;;;5046833;28;20471;-67
2024/02/22 02:54:23;;;;;;;1.75;1.63;;;11.50;99.90;;;;;;5052335;28;20020;-67
2024/02/22 02:56:49;;;;;;;2.35;1.83;;;11.50;99.90;;;;;;5050152;28;20040;-67
2024/02/22 02:59:16;;;;;;;2.90;2.20;;;11.50;99.90;;;;;;5047119;28;20025;-67
2024/02/22 03:01:49;;;;;;;2.83;2.30;;;11.50;99.90;;;;;;5049808;28;20021;-66
2024/02/22 03:04:17;;;;;;;3.58;2.65;;;11.50;99.90;;;;;;5051328;28;20024;-66
2024/02/22 03:06:43;;;;;;;3.22;2.10;;;11.50;99.90;;;;;;5048085;28;20029;-66
2024/02/22 03:09:09;;;;;;;2.33;1.90;;;11.50;99.90;;;;;;5051320;28;20029;-66
2024/02/22 03:11:35;;;;;;;3.95;2.80;;;11.60;99.90;;;;;;5048759;28;20373;-66
2024/02/22 03:14:00;;;;;;;4.80;2.97;;;11.60;99.90;;;;;;5046394;28;20033;-66
2024/02/22 03:16:26;;;;;;;4.80;2.92;;;11.60;99.90;;;;;;5048947;28;20017;-66
2024/02/22 03:18:52;;;;;;;5.13;3.50;;;11.60;99.90;;;;;;5049372;28;20396;-67
2024/02/22 03:21:18;;;;;;;7.22;4.80;;;11.60;99.90;;;;;;5048940;28;20108;-67
2024/02/22 03:23:44;;;;;;;6.18;3.67;;;11.60;99.90;;;;;;5049225;28;20028;-67
2024/02/22 03:26:10;;;;;;;3.42;2.63;;;11.60;99.90;;;;;;5048693;28;20033;-67
2024/02/22 03:28:35;;;;;;;6.13;3.58;;;11.60;99.90;;;;;;5050803;28;20024;-66
2024/02/22 03:31:01;;;;;;;6.07;3.55;;;11.60;99.90;;;;;;5049832;28;20115;-68
2024/02/22 03:33:28;;;;;;;4.50;3.00;;;11.60;99.90;;;;;;5050703;28;20025;-67
2024/02/22 03:35:54;;;;;;;3.53;2.42;;;11.70;99.90;;;;;;5044346;28;20025;-67
2024/02/22 03:38:19;;;;;;;3.30;2.03;;;11.70;99.90;;;;;;5051702;28;20021;-66
2024/02/22 03:40:45;;;;;;;3.75;2.20;;;11.70;99.90;;;;;;5050373;28;20075;-69
2024/02/22 03:43:11;;;;;;;3.20;2.30;;;11.70;99.90;;;;;;5050666;28;20387;-68
2024/02/22 03:45:36;;;;;;;4.32;2.65;;;11.70;99.90;;;;;;5050184;28;20025;-68
2024/02/22 03:48:02;;;;;;;4.70;3.20;;;11.70;99.90;;;;;;5048491;28;20099;-67
2024/02/22 03:50:28;;;;;;;3.67;2.60;;;11.80;99.90;;;;;;5052061;28;20025;-66
2024/02/22 03:52:54;;;;;;;4.40;2.88;;;11.80;99.90;;;;;;5047828;28;20029;-68
2024/02/22 03:55:20;;;;;;;3.10;2.30;;;11.80;99.90;;;;;;5053272;28;20044;-66
2024/02/22 03:57:46;;;;;;;5.90;2.88;;;11.80;99.90;;;;;;5049301;28;20025;-68
2024/02/22 04:00:12;;;;;;;5.93;3.83;;;11.80;99.90;;;;;;5047802;28;20503;-68
2024/02/22 04:02:38;;;;;;;4.68;3.00;;;11.80;99.90;;;;;;5043656;28;20091;-67
2024/02/22 04:05:04;;;;;;;4.95;3.00;;;11.80;99.90;;;;;;5048398;28;20013;-66
2024/02/22 04:07:30;;;;;;;4.78;2.88;;;11.80;99.90;;;;;;5048434;28;20025;-67
2024/02/22 04:09:55;;;;;;;4.70;2.88;;;11.80;99.90;;;;;;5046690;28;20380;-68
2024/02/22 04:12:21;;;;;;;5.15;3.28;;;11.80;99.90;;;;;;5049151;28;20055;-66
2024/02/22 04:14:47;;;;;;;3.47;2.30;;;11.80;99.90;;;;;;5047607;28;20025;-68
2024/02/22 04:17:12;;;;;;;5.53;3.25;;;11.90;99.90;;;;;;5049032;28;20023;-67
2024/02/22 04:19:38;;;;;;;4.47;2.85;;;11.90;99.90;;;;;;5046409;28;20387;-67
2024/02/22 04:22:04;;;;;;;4.95;2.95;;;11.90;99.90;;;;;;5049577;28;20104;-66
2024/02/22 04:24:29;;;;;;;4.75;3.00;;;11.80;99.90;;;;;;5050060;28;20044;-67
2024/02/22 04:26:55;;;;;;;6.70;3.30;;;11.90;99.90;;;;;;5049170;28;20033;-67
2024/02/22 04:29:20;;;;;;;8.57;4.68;;;11.80;99.90;;;;;;5048486;28;20053;-66
2024/02/22 04:31:47;;;;;;;7.78;4.72;;;11.80;99.90;;;;;;5045974;28;20037;-67
2024/02/22 04:34:13;;;;;;;6.15;3.70;;;11.80;99.90;;;;;;5045726;28;20037;-65
2024/02/22 04:36:42;;;;;;;7.88;4.18;;;11.80;99.90;;;;;;5046821;28;20100;-67
2024/02/22 04:39:09;;;;;;;9.00;3.40;;;11.80;99.90;;;;;;5048831;28;20035;-68
2024/02/22 04:41:38;;;;;;;6.25;3.17;;;11.80;99.90;;;;;;5046361;28;20036;-65
2024/02/22 04:44:04;;;;;;;8.20;4.32;;;11.80;99.90;;;;;;5047220;28;20025;-68
2024/02/22 04:46:30;;;;;;;8.23;4.22;;;11.80;99.90;;;;;;5046954;28;20029;-67
2024/02/22 04:49:02;;;;;;;7.57;3.83;;;11.80;99.90;;;;;;5047820;28;20505;-68
2024/02/22 04:51:29;;;;;;;4.85;3.10;;;11.80;99.90;;;;;;5049872;28;20029;-67
2024/02/22 04:53:54;;;;;;;5.38;3.42;;;11.80;99.90;;;;;;5048157;28;20086;-68
2024/02/22 04:56:20;;;;;;;6.97;3.28;;;11.80;99.90;;;;;;5048565;28;20472;-67
2024/02/22 04:58:45;;;;;;;5.78;2.72;;;11.80;99.90;;;;;;5049837;28;20519;-67
2024/02/22 05:01:11;;;;;;;6.50;3.50;;;11.80;99.90;;;;;;5046265;28;20035;-68
2024/02/22 05:03:36;;;;;;;4.43;2.60;;;11.80;99.90;;;;;;5046849;28;20021;-68
2024/02/22 05:06:02;;;;;;;4.97;2.47;;;11.80;99.90;;;;;;5047171;28;20055;-69
2024/02/22 05:08:28;;;;;;;5.93;3.08;;;11.80;99.90;;;;;;5055510;28;20029;-67
2024/02/22 05:10:53;;;;;;;5.00;2.50;;;11.80;99.90;;;;;;5050813;28;20041;-67
2024/02/22 05:13:20;;;;;;;4.32;2.55;;;11.70;99.90;;;;;;5053931;28;20021;-69
2024/02/22 05:15:46;;;;;;;9.75;4.50;;;11.80;99.90;;;;;;5048754;28;20040;-68
2024/02/22 05:18:11;;;;;;;8.35;3.85;;;11.80;99.90;;;;;;5049785;28;20407;-69
2024/02/22 05:20:38;;;;;;;5.70;3.28;;;11.70;99.90;;;;;;5049548;28;20016;-69
2024/02/22 05:23:05;;;;;;;5.47;2.72;;;11.70;99.90;;;;;;5047108;28;20511;-68
2024/02/22 05:25:31;;;;;;;5.75;2.75;;;11.70;99.90;;;;;;5052775;28;20480;-68
2024/02/22 05:27:57;;;;;;;4.72;2.90;;;11.70;99.90;;;;;;5053451;28;20117;-67
2024/02/22 05:30:23;;;;;;;6.53;3.13;;;11.70;99.90;;;;;;5052727;28;20056;-67
2024/02/22 05:32:48;;;;;;;5.78;2.78;;;11.70;99.90;;;;;;5052636;28;20119;-67
2024/02/22 05:35:14;;;;;;;7.70;3.30;;;11.70;99.90;;;;;;5051045;28;20025;-66
2024/02/22 05:37:39;;;;;;;6.05;2.47;;;11.60;99.90;;;;;;5053102;28;20025;-65
2024/02/22 05:40:09;;;;;;;6.05;2.92;;;11.60;99.90;;;;;;5051139;28;20023;-67
2024/02/22 05:42:34;;;;;;;7.07;3.10;;;11.50;99.90;;;;;;5049142;28;20063;-65
2024/02/22 05:45:00;;;;;;;7.45;2.58;;;11.50;99.90;;;;;;5052012;28;20037;-66
2024/02/22 05:47:26;;;;;;;3.72;1.88;;;11.50;99.90;;;;;;5051118;28;20379;-66
2024/02/22 05:49:51;;;;;;;3.70;1.77;;;11.50;99.90;;;;;;5052401;28;20029;-65
2024/02/22 05:52:17;;;;;;;5.28;2.00;;;11.50;99.90;;;;;;5050632;28;20029;-67
2024/02/22 05:54:45;;;;;;;5.28;2.20;;;11.50;99.90;;;;;;5053559;28;20028;-68
2024/02/22 05:57:11;;;;;;;5.32;1.80;;;11.50;99.90;;;;;;5053116;28;20104;-67
2024/02/22 05:59:36;;;;;;;3.78;1.50;;;11.40;99.90;;;;;;5052120;28;20570;-67
2024/02/22 06:02:02;;;;;;;5.78;1.92;;;11.40;99.90;;;;;;5050605;28;20025;-66
2024/02/22 06:04:28;;;;;;;4.93;2.20;;;11.40;99.90;;;;;;5055787;28;20017;-68
2024/02/22 06:06:53;;;;;;;5.40;1.90;;;11.40;99.90;;;;;;5050281;28;20032;-68
2024/02/22 06:09:19;;;;;;;4.85;1.75;;;11.40;99.90;;;;;;5053335;28;20021;-69
2024/02/22 06:11:44;;;;;;;8.90;2.95;;;11.40;99.90;;;;;;5047877;28;20039;-67
2024/02/22 06:14:10;;;;;;;8.45;3.30;;;11.40;99.90;;;;;;5047745;28;20029;-68
2024/02/22 06:16:36;;;;;;;8.65;2.38;;;11.30;99.90;;;;;;5054584;28;20074;-69
2024/02/22 06:19:01;;;;;;;7.18;3.00;;;11.40;99.90;;;;;;5051798;28;20116;-68
2024/02/22 06:21:27;;;;;;;8.27;2.50;;;11.40;99.90;;;;;;5045592;28;20017;-68
2024/02/22 06:23:52;;;;;;;5.43;2.50;;;11.40;99.90;;;;;;5045080;28;20102;-70
2024/02/22 06:26:18;;;;;;;3.95;1.90;;;11.40;99.90;;;;;;5051699;28;20052;-67
2024/02/22 06:28:44;;;;;;;5.55;2.58;;;11.40;99.90;;;;;;5053647;28;20032;-67
2024/02/22 06:31:09;;;;;;;6.85;2.92;;;11.40;99.90;;;;;;5050468;28;20605;-65
2024/02/22 06:33:35;;;;;;;7.57;3.13;;;11.40;99.90;;;;;;5052821;28;20506;-68
2024/02/22 06:36:01;;;;;;;8.02;3.83;;;11.40;99.90;;;;;;5047764;28;20064;-67
2024/02/22 06:38:26;;;;;;;5.70;2.75;;;11.40;99.90;;;;;;5052629;28;20018;-69
2024/02/22 06:40:53;;;;;;;5.07;2.85;;;11.40;99.90;;;;;;5047140;28;20021;-66
2024/02/22 06:43:19;;;;;;;6.93;3.65;;;11.40;99.90;;;;;;5050316;28;20068;-67
2024/02/22 06:45:44;;;;;;;4.60;2.75;;;11.40;99.90;;;;;;5048651;28;20425;-66
2024/02/22 06:48:10;;;;;;;4.07;2.58;;;11.50;99.90;;;;;;5049268;28;20087;-67
2024/02/22 06:50:35;;;;;;;4.82;2.47;;;11.50;99.90;;;;;;5044832;28;20040;-66
2024/02/22 06:53:01;;;;;;;4.90;2.65;;;11.50;99.90;;;;;;5048993;28;20029;-65
2024/02/22 06:55:31;;;;;;;4.47;2.38;;;11.50;99.90;;;;;;5047123;28;20095;-68
2024/02/22 06:57:57;;;;;;;4.85;2.10;;;11.50;99.90;;;;;;5044878;28;20041;-67
2024/02/22 07:00:23;;;;;;;6.85;3.00;;;11.50;99.90;;;;;;5048023;28;20067;-66
2024/02/22 07:02:49;;;;;;;5.38;2.80;;;11.50;99.90;;;;;;5050351;28;20014;-67
2024/02/22 07:05:15;;;;;;;5.88;3.08;;;11.50;99.90;;;;;;5052661;28;20530;-67
2024/02/22 07:07:41;;;;;;;4.25;2.60;;;11.50;99.90;;;;;;5048563;28;20120;-68
2024/02/22 07:10:07;;;;;;;6.57;2.80;;;11.50;99.90;;;;;;5046134;28;20063;-67
2024/02/22 07:12:33;;;;;;;9.00;4.97;;;11.50;99.90;;;;;;5051555;28;20054;-68
2024/02/22 07:14:59;;;;;;;13.70;6.00;;;11.50;99.90;;;;;;5050868;28;20084;-66
2024/02/22 07:17:24;;;;;;;11.88;4.85;;;11.40;99.90;;;;;;5051973;28;20028;-68
2024/02/22 07:19:50;;;;;;;7.28;3.95;;;11.40;99.90;;;;;;5051199;28;20025;-68
2024/02/22 07:22:17;;;;;;;7.40;4.00;;;11.40;99.90;;;;;;5050566;28;20476;-66
2024/02/22 07:24:42;;;;;;;6.13;3.33;;;11.40;99.90;;;;;;5050960;28;20025;-67
2024/02/22 07:27:09;;;;;;;9.60;3.90;;;11.50;99.90;;;;;;5052783;28;20104;-66
2024/02/22 07:29:35;;;;;;;7.50;3.92;;;11.50;99.90;;;;;;5055066;28;20475;-68
2024/02/22 07:32:03;;;;;;;7.22;3.63;;;11.40;99.90;;;;;;5052291;28;20017;-66
2024/02/22 07:34:28;;;;;;;9.43;3.58;;;11.50;99.90;;;;;;5053315;28;20099;-66
2024/02/22 07:36:54;;;;;;;9.05;3.90;;;11.50;99.90;;;;;;5051384;28;20490;-65
2024/02/22 07:39:20;;;;;;;8.65;4.07;;;11.50;99.90;;;;;;5050758;28;20047;-67
2024/02/22 07:41:45;;;;;;;5.97;3.33;;;11.40;99.90;;;;;;5051644;28;20025;-67
2024/02/22 07:44:11;;;;;;;9.15;4.35;;;11.50;99.90;;;;;;5051700;28;20029;-66
2024/02/22 07:46:38;;;;;;;7.07;3.90;;;11.50;99.90;;;;;;5044871;28;20066;-66
2024/02/22 07:49:05;;;;;;;7.80;3.63;;;11.50;99.90;;;;;;5047384;28;20021;-67
2024/02/22 07:51:31;;;;;;;9.95;4.30;;;11.50;99.90;;;;;;5051105;28;20025;-66
2024/02/22 07:53:56;;;;;;;7.70;5.15;;;11.50;99.90;;;;;;5046437;28;20026;-67
2024/02/22 07:56:22;;;;;;;7.38;4.35;;;11.40;99.90;;;;;;5050361;28;20032;-67
2024/02/22 07:58:49;;;;;;;9.80;4.85;;;11.50;99.90;;;;;;5051269;28;20021;-66
2024/02/22 08:01:15;;;;;;;8.10;4.50;;;11.40;99.90;;;;;;5049330;28;20529;-67
2024/02/22 08:03:43;;;;;;;11.52;5.70;;;11.40;99.90;;;;;;5049698;28;20020;-67
2024/02/22 08:06:13;;;;;;;10.75;5.50;;;11.40;99.90;;;;;;5045281;28;20391;-67
2024/02/22 08:08:39;;;;;;;7.72;4.95;;;11.40;99.90;;;;;;5047782;28;20020;-67
2024/02/22 08:11:06;;;;;;;8.27;4.53;;;11.30;99.90;;;;;;5048037;28;20607;-67
2024/02/22 08:13:32;;;;;;;8.55;4.70;;;11.40;99.90;;;;;;5048178;28;20025;-67
2024/02/22 08:16:10;;;;;;;5.63;3.72;;;11.40;99.90;;;;;;5048739;28;20031;-67
2024/02/22 08:18:38;;;;;;;7.80;4.68;;;11.40;99.90;;;;;;5047946;28;20108;-67
2024/02/22 08:21:05;;;;;;;7.13;4.50;;;11.40;99.90;;;;;;5048499;28;20087;-67
2024/02/22 08:23:31;;;;;;;8.40;5.07;;;11.40;99.90;;;;;;5052549;28;20039;-66
2024/02/22 08:25:57;;;;;;;9.75;5.38;;;11.40;99.90;;;;;;5052011;28;20029;-67
2024/02/22 08:28:23;;;;;;;7.35;4.50;;;11.40;99.90;;;;;;5048887;28;20065;-67
2024/02/22 08:30:49;;;;;;;7.53;4.38;;;11.40;99.90;;;;;;5048478;28;20021;-66
2024/02/22 08:33:15;;;;;;;9.25;5.88;;;11.40;99.90;;;;;;5048379;28;20599;-68
2024/02/22 08:35:41;;;;;;;7.03;5.28;;;11.50;99.90;;;;;;5048854;28;20100;-68
2024/02/22 08:38:07;;;;;;;6.97;4.68;;;11.50;99.90;;;;;;5044428;28;20116;-66
2024/02/22 08:40:33;;;;;;;8.20;4.80;;;11.50;99.90;;;;;;5048453;28;20040;-66
2024/02/22 08:43:00;;;;;;;6.57;4.28;;;11.50;99.90;;;;;;5055812;28;20055;-67
2024/02/22 08:45:26;;;;;;;5.03;3.60;;;11.50;99.90;;;;;;5055769;28;20070;-66
2024/02/22 08:47:52;;;;;;;5.85;3.50;;;11.60;99.90;;;;;;5065987;28;20033;-66
2024/02/22 08:50:17;;;;;;;5.63;3.40;;;11.60;99.90;;;;;;5057001;28;20501;-66
2024/02/22 08:52:43;;;;;;;6.68;3.70;;;11.70;99.90;;;;;;5055704;28;20089;-67
2024/02/22 08:55:11;;;;;;;4.10;2.95;;;11.70;99.90;;;;;;5056593;28;20387;-68
2024/02/22 08:57:37;;;;;;;4.93;3.53;;;11.80;99.90;;;;;;5055778;28;20365;-67
2024/02/22 09:00:05;;;;;;;4.32;3.40;;;11.80;99.90;;;;;;5058793;28;20015;-67
2024/02/22 09:02:31;;;;;;;5.80;3.55;;;11.80;99.90;;;;;;5057204;28;20013;-66
2024/02/22 09:04:58;;;;;;;3.38;2.70;;;11.90;99.90;;;;;;5055350;28;20401;-67
2024/02/22 09:07:24;;;;;;;2.80;2.30;;;11.90;99.90;;;;;;5046973;28;20026;-65
2024/02/22 09:09:50;;;;;;;5.97;4.18;;;11.90;99.90;;;;;;5056024;28;20024;-66
2024/02/22 09:12:16;;;;;;;5.32;3.17;;;11.90;99.90;;;;;;5054381;28;20459;-66
2024/02/22 09:14:42;;;;;;;3.42;2.75;;;12.00;99.90;;;;;;5060330;28;20021;-65
2024/02/22 09:17:07;;;;;;;4.53;3.40;;;12.00;99.90;;;;;;5046542;28;20069;-68
2024/02/22 09:19:33;;;;;;;3.30;2.78;;;12.00;99.90;;;;;;5055853;28;20029;-67
2024/02/22 09:22:00;;;;;;;4.63;3.13;;;12.00;99.90;;;;;;5046681;28;20033;-68
2024/02/22 09:24:27;;;;;;;4.18;3.03;;;12.00;99.90;;;;;;5053225;28;20013;-67
2024/02/22 09:26:52;;;;;;;2.72;2.10;;;12.00;99.90;;;;;;5044248;28;20037;-66
2024/02/22 09:29:19;;;;;;;4.10;2.63;;;12.00;99.90;;;;;;5047228;28;20051;-67
2024/02/22 09:31:45;;;;;;;3.53;2.97;;;12.00;99.90;;;;;;5051162;28;20151;-66
2024/02/22 09:34:11;;;;;;;3.83;2.80;;;12.00;99.90;;;;;;5047296;28;20032;-67
2024/02/22 09:36:36;;;;;;;3.72;2.53;;;12.00;99.90;;;;;;5051869;28;20083;-67
2024/02/22 09:39:03;;;;;;;2.85;2.40;;;12.10;99.90;;;;;;5051368;28;20020;-68
2024/02/22 09:41:29;;;;;;;2.95;2.45;;;12.10;99.90;;;;;;5055518;28;20020;-67
2024/02/22 09:43:56;;;;;;;4.30;2.63;;;12.10;99.90;;;;;;5055828;28;20082;-67
2024/02/22 09:46:22;;;;;;;3.58;3.00;;;12.20;99.90;;;;;;5051984;28;20037;-68
2024/02/22 09:48:48;;;;;;;2.80;2.50;;;12.10;99.90;;;;;;5051189;28;20052;-68
2024/02/22 09:51:14;;;;;;;2.67;2.17;;;12.20;99.90;;;;;;5053806;28;20381;-67
2024/02/22 09:53:40;;;;;;;4.35;3.17;;;12.20;99.90;;;;;;5049546;28;20032;-67
2024/02/22 09:56:09;;;;;;;3.58;2.80;;;12.20;99.80;;;;;;5049164;28;20029;-68
2024/02/22 09:58:35;;;;;;;3.83;2.88;;;12.20;99.80;;;;;;5049515;28;20041;-68
2024/02/22 10:01:00;;;;;;;4.40;3.17;;;12.20;99.80;;;;;;5046538;28;20059;-68
2024/02/22 10:03:37;;;;;;;2.85;2.15;;;12.20;99.70;;;;;;5043958;28;20048;-67
2024/02/22 10:06:03;;;;;;;3.05;2.30;;;12.20;99.70;;;;;;5045260;28;20119;-67
2024/02/22 10:08:29;;;;;;;2.10;1.90;;;12.20;99.70;;;;;;5046978;28;20021;-67
2024/02/22 10:11:08;;;;;;;1.50;1.40;;;12.30;99.80;;;;;;5045832;28;20025;-67
2024/02/22 10:13:34;;;;;;;2.90;2.08;;;12.30;99.70;;;;;;5047550;28;20033;-67
2024/02/22 10:16:13;;;;;;;2.67;1.90;;;12.20;99.60;;;;;;5049460;28;20111;-67
2024/02/22 10:18:40;;;;;;;1.90;1.60;;;12.20;99.80;;;;;;5048922;28;20496;-67
2024/02/22 10:21:16;;;;;;;2.10;1.90;;;12.20;99.90;;;;;;5049089;28;20096;-67
2024/02/22 10:23:43;;;;;;;1.95;1.70;;;12.20;99.90;;;;;;5048426;28;20013;-67
2024/02/22 10:26:09;;;;;;;2.10;1.88;;;12.30;99.90;;;;;;5048997;28;20025;-67
2024/02/22 10:28:35;;;;;;;2.20;2.00;;;12.20;99.90;;;;;;5049784;28;20099;-67
2024/02/22 10:31:04;;;;;;;2.17;1.98;;;12.20;99.90;;;;;;5044436;28;20092;-67
2024/02/22 10:33:30;;;;;;;2.17;1.98;;;12.10;99.90;;;;;;5047207;28;20021;-68
2024/02/22 10:35:58;;;;;;;2.08;1.90;;;12.20;99.90;;;;;;5050650;28;20055;-67
2024/02/22 10:38:32;;;;;;;1.88;1.77;;;12.10;99.90;;;;;;5047177;28;20480;-68
2024/02/22 10:41:00;;;;;;;2.17;1.98;;;12.10;99.90;;;;;;5044635;28;20458;-67
2024/02/22 10:43:26;;;;;;;3.03;2.20;;;12.00;99.90;;;;;;5047353;28;20048;-67
2024/02/22 10:45:53;;;;;;;1.70;1.60;;;12.00;99.90;;;;;;5054280;28;20107;-67
2024/02/22 10:48:21;;;;;;;1.70;1.60;;;12.00;99.90;;;;;;5056636;28;20021;-67
2024/02/22 10:50:48;;;;;;;3.90;2.30;;;12.10;99.90;;;;;;5045511;28;20032;-67
2024/02/22 10:53:15;;;;;;;2.03;1.83;;;12.10;99.90;;;;;;5047256;28;20025;-66
2024/02/22 10:55:49;;;;;;;1.60;1.50;;;12.10;99.90;;;;;;5053823;28;20020;-68
2024/02/22 10:58:18;;;;;;;1.27;1.17;;;12.10;99.90;;;;;;5048051;28;20488;-68
2024/02/22 11:00:45;;;;;;;1.30;1.20;;;12.10;99.90;;;;;;5046098;28;20017;-68
2024/02/22 11:03:13;;;;;;;1.67;1.58;;;12.10;99.90;;;;;;5049725;28;20097;-67
2024/02/22 11:05:39;;;;;;;1.40;1.30;;;12.10;99.90;;;;;;5045542;28;20052;-67
2024/02/22 11:08:04;;;;;;;1.60;1.50;;;12.10;99.90;;;;;;5049272;28;20021;-68
2024/02/22 11:10:30;;;;;;;1.20;1.10;;;12.10;99.90;;;;;;5049540;28;20518;-67
2024/02/22 11:13:03;;;;;;;1.40;1.30;;;12.00;99.90;;;;;;5049984;28;20036;-68
2024/02/22 11:15:35;;;;;;;1.50;1.40;;;12.10;99.90;;;;;;5050096;28;20483;-66
2024/02/22 11:18:01;;;;;;;2.35;1.25;;;12.10;99.90;;;;;;5047074;28;20393;-67
2024/02/22 11:20:34;;;;;;;1.33;1.23;;;12.00;99.90;;;;;;5048986;28;20017;-68
2024/02/22 11:23:18;;;;;;;1.15;1.10;;;12.10;99.90;;;;;;5049948;28;20028;-68
2024/02/22 11:25:44;;;;;;;1.50;1.40;;;12.00;99.90;;;;;;5049734;28;20045;-68
2024/02/22 11:28:10;;;;;;;1.20;1.10;;;12.00;99.90;;;;;;5049808;28;20021;-68
2024/02/22 11:30:36;;;;;;;1.63;1.10;;;12.00;99.90;;;;;;5049278;28;20090;-67
2024/02/22 11:33:02;;;;;;;1.90;1.80;;;12.10;99.90;;;;;;5049407;28;20021;-67
2024/02/22 11:35:28;;;;;;;1.25;1.15;;;12.20;99.90;;;;;;5045254;28;20025;-67
2024/02/22 11:38:04;;;;;;;1.20;1.10;;;12.20;99.90;;;;;;5047075;28;20047;-68
2024/02/22 11:40:33;;;;;;;1.80;1.15;;;12.20;99.90;;;;;;5048091;28;20062;-67
2024/02/22 11:42:59;;;;;;;1.85;1.60;;;12.30;99.90;;;;;;5049585;28;20467;-67
2024/02/22 11:45:25;;;;;;;1.48;1.38;;;12.30;99.90;;;;;;5049556;28;20032;-67
2024/02/22 11:47:51;;;;;;;1.23;1.13;;;12.40;99.90;;;;;;5048700;28;20021;-66
2024/02/22 11:50:17;;;;;;;1.48;0.95;;;12.40;99.90;;;;;;5048790;28;20545;-68
2024/02/22 11:52:48;;;;;;;1.63;1.20;;;12.40;99.90;;;;;;5048506;28;20021;-67
2024/02/22 11:55:14;;;;;;;1.20;1.10;;;12.40;99.90;;;;;;5045815;28;20029;-67
2024/02/22 11:57:40;;;;;;;1.30;1.20;;;12.40;99.90;;;;;;5038123;28;21321;-66
2024/02/22 12:00:06;;;;;;;1.30;1.20;;;12.40;99.90;;;;;;5043790;28;20032;-67
2024/02/22 12:02:33;;;;;;;1.20;1.10;;;12.40;99.90;;;;;;5053601;28;20391;-67
2024/02/22 12:04:59;;;;;;;1.35;1.20;;;12.40;99.90;;;;;;5052630;28;20050;-67
2024/02/22 12:07:26;;;;;;;1.00;1.00;;;12.30;99.90;;;;;;5050904;28;20021;-68
2024/02/22 12:09:52;;;;;;;1.10;1.00;;;12.30;99.90;;;;;;5047215;28;20021;-67
2024/02/22 12:12:18;;;;;;;1.10;1.10;;;12.30;99.90;;;;;;5056050;28;20020;-66
2024/02/22 12:14:54;;;;;;;1.75;1.35;;;12.30;99.90;;;;;;5045040;28;20108;-66
2024/02/22 12:17:27;;;;;;;1.00;0.90;;;12.30;99.90;;;;;;5051949;28;20119;-67
2024/02/22 12:19:54;;;;;;;1.40;1.30;;;12.30;99.90;;;;;;5051230;28;20096;-67
2024/02/22 12:22:20;;;;;;;1.50;1.40;;;12.30;99.90;;;;;;5052918;28;20070;-66
2024/02/22 12:24:49;;;;;;;1.40;1.30;;;12.20;99.90;;;;;;5047574;28;20036;-67
2024/02/22 12:27:16;;;;;;;1.48;1.05;;;12.20;99.90;;;;;;5053054;28;20463;-68
2024/02/22 12:29:42;;;;;;;1.23;1.13;;;12.20;99.90;;;;;;5052159;28;20017;-67
2024/02/22 12:32:08;;;;;;;1.30;1.20;;;12.30;99.90;;;;;;5051156;28;20016;-66
2024/02/22 12:34:36;;;;;;;1.35;1.25;;;12.30;99.90;;;;;;5050055;28;20412;-67
2024/02/22 12:37:03;;;;;;;1.67;1.58;;;12.30;99.90;;;;;;5052527;28;20029;-67
2024/02/22 12:39:29;;;;;;;1.90;1.50;;;12.30;99.90;;;;;;5052537;28;20092;-67
2024/02/22 12:41:55;;;;;;;1.83;1.30;;;12.20;99.90;;;;;;5052511;28;20116;-68